sensor_id;sensor_type;location;lat;lon;timestamp;P1;durP1;ratioP1;P2;durP2;ratioP2
23720;SDS011;42950;52.134;5.578;2024-01-10T00:01:49;6.35;;;3.17;;
23720;SDS011;42950;52.134;5.578;2024-01-10T00:04:15;4.65;;;3.08;;
23720;SDS011;42950;52.134;5.578;2024-01-10T00:06:41;6.30;;;3.17;;
23720;SDS011;42950;52.134;5.578;2024-01-10T00:09:07;4.90;;;2.85;;
23720;SDS011;42950;52.134;5.578;2024-01-10T00:11:33;4.90;;;3.40;;
23720;SDS011;42950;52.134;5.578;2024-01-10T00:13:59;4.13;;;3.08;;
23720;SDS011;42950;52.134;5.578;2024-01-10T00:16:28;5.80;;;3.10;;
23720;SDS011;42950;52.134;5.578;2024-01-10T00:18:53;3.97;;;3.05;;
23720;SDS011;42950;52.134;5.578;2024-01-10T00:21:19;4.75;;;3.58;;
23720;SDS011;42950;52.134;5.578;2024-01-10T00:23:45;4.43;;;3.00;;
23720;SDS011;42950;52.134;5.578;2024-01-10T00:26:10;5.13;;;3.28;;
23720;SDS011;42950;52.134;5.578;2024-01-10T00:28:36;4.07;;;3.22;;
23720;SDS011;42950;52.134;5.578;2024-01-10T00:31:01;4.72;;;3.00;;
23720;SDS011;42950;52.134;5.578;2024-01-10T00:33:27;5.95;;;3.05;;
23720;SDS011;42950;52.134;5.578;2024-01-10T00:35:53;7.72;;;3.22;;
23720;SDS011;42950;52.134;5.578;2024-01-10T00:38:18;4.85;;;3.20;;
23720;SDS011;42950;52.134;5.578;2024-01-10T00:40:44;4.57;;;2.90;;
23720;SDS011;42950;52.134;5.578;2024-01-10T00:43:09;4.40;;;3.50;;
23720;SDS011;42950;52.134;5.578;2024-01-10T00:45:35;4.78;;;3.22;;
23720;SDS011;42950;52.134;5.578;2024-01-10T00:48:00;4.78;;;2.95;;
23720;SDS011;42950;52.134;5.578;2024-01-10T00:50:27;5.88;;;3.30;;
23720;SDS011;42950;52.134;5.578;2024-01-10T00:52:52;4.30;;;3.10;;
23720;SDS011;42950;52.134;5.578;2024-01-10T00:55:19;4.95;;;2.83;;
23720;SDS011;42950;52.134;5.578;2024-01-10T00:57:45;6.00;;;3.65;;
23720;SDS011;42950;52.134;5.578;2024-01-10T01:00:11;4.57;;;3.20;;
23720;SDS011;42950;52.134;5.578;2024-01-10T01:02:37;4.45;;;3.22;;
23720;SDS011;42950;52.134;5.578;2024-01-10T01:05:06;7.35;;;3.70;;
23720;SDS011;42950;52.134;5.578;2024-01-10T01:07:34;5.53;;;3.10;;
23720;SDS011;42950;52.134;5.578;2024-01-10T01:10:00;4.20;;;3.15;;
23720;SDS011;42950;52.134;5.578;2024-01-10T01:12:26;7.00;;;3.70;;
23720;SDS011;42950;52.134;5.578;2024-01-10T01:14:52;5.85;;;3.38;;
23720;SDS011;42950;52.134;5.578;2024-01-10T01:17:17;4.05;;;2.95;;
23720;SDS011;42950;52.134;5.578;2024-01-10T01:19:43;5.30;;;3.00;;
23720;SDS011;42950;52.134;5.578;2024-01-10T01:22:08;3.45;;;3.05;;
23720;SDS011;42950;52.134;5.578;2024-01-10T01:24:34;5.18;;;3.28;;
23720;SDS011;42950;52.134;5.578;2024-01-10T01:26:59;6.97;;;3.50;;
23720;SDS011;42950;52.134;5.578;2024-01-10T01:29:25;5.97;;;3.45;;
23720;SDS011;42950;52.134;5.578;2024-01-10T01:31:51;6.82;;;3.40;;
23720;SDS011;42950;52.134;5.578;2024-01-10T01:34:17;4.80;;;3.35;;
23720;SDS011;42950;52.134;5.578;2024-01-10T01:36:43;7.95;;;3.75;;
23720;SDS011;42950;52.134;5.578;2024-01-10T01:39:08;4.95;;;3.30;;
23720;SDS011;42950;52.134;5.578;2024-01-10T01:41:34;5.28;;;3.47;;
23720;SDS011;42950;52.134;5.578;2024-01-10T01:43:59;4.80;;;3.20;;
23720;SDS011;42950;52.134;5.578;2024-01-10T01:46:25;5.15;;;3.30;;
23720;SDS011;42950;52.134;5.578;2024-01-10T01:48:51;8.57;;;4.10;;
23720;SDS011;42950;52.134;5.578;2024-01-10T01:51:17;6.63;;;3.22;;
23720;SDS011;42950;52.134;5.578;2024-01-10T01:53:46;5.28;;;3.40;;
23720;SDS011;42950;52.134;5.578;2024-01-10T01:56:14;8.35;;;3.55;;
23720;SDS011;42950;52.134;5.578;2024-01-10T01:58:41;6.43;;;3.60;;
23720;SDS011;42950;52.134;5.578;2024-01-10T02:01:08;5.05;;;3.40;;
23720;SDS011;42950;52.134;5.578;2024-01-10T02:03:35;4.78;;;3.30;;
23720;SDS011;42950;52.134;5.578;2024-01-10T02:06:01;4.35;;;3.35;;
23720;SDS011;42950;52.134;5.578;2024-01-10T02:08:32;8.40;;;3.70;;
23720;SDS011;42950;52.134;5.578;2024-01-10T02:10:59;6.13;;;3.58;;
23720;SDS011;42950;52.134;5.578;2024-01-10T02:13:25;5.57;;;3.88;;
23720;SDS011;42950;52.134;5.578;2024-01-10T02:15:51;4.63;;;3.45;;
23720;SDS011;42950;52.134;5.578;2024-01-10T02:18:16;7.07;;;4.30;;
23720;SDS011;42950;52.134;5.578;2024-01-10T02:20:43;6.18;;;3.70;;
23720;SDS011;42950;52.134;5.578;2024-01-10T02:23:09;6.05;;;3.28;;
23720;SDS011;42950;52.134;5.578;2024-01-10T02:25:35;6.13;;;3.90;;
23720;SDS011;42950;52.134;5.578;2024-01-10T02:28:01;6.68;;;3.60;;
23720;SDS011;42950;52.134;5.578;2024-01-10T02:30:27;6.95;;;3.75;;
23720;SDS011;42950;52.134;5.578;2024-01-10T02:32:53;5.82;;;3.60;;
23720;SDS011;42950;52.134;5.578;2024-01-10T02:35:18;5.70;;;4.10;;
23720;SDS011;42950;52.134;5.578;2024-01-10T02:37:44;6.50;;;4.13;;
23720;SDS011;42950;52.134;5.578;2024-01-10T02:40:10;5.25;;;3.72;;
23720;SDS011;42950;52.134;5.578;2024-01-10T02:42:36;7.25;;;4.03;;
23720;SDS011;42950;52.134;5.578;2024-01-10T02:45:01;6.05;;;4.20;;
23720;SDS011;42950;52.134;5.578;2024-01-10T02:47:27;6.22;;;4.15;;
23720;SDS011;42950;52.134;5.578;2024-01-10T02:49:54;7.45;;;4.00;;
23720;SDS011;42950;52.134;5.578;2024-01-10T02:52:19;6.28;;;4.05;;
23720;SDS011;42950;52.134;5.578;2024-01-10T02:54:45;6.38;;;3.90;;
23720;SDS011;42950;52.134;5.578;2024-01-10T02:57:11;5.20;;;3.67;;
23720;SDS011;42950;52.134;5.578;2024-01-10T02:59:37;5.68;;;3.63;;
23720;SDS011;42950;52.134;5.578;2024-01-10T03:02:03;6.03;;;3.97;;
23720;SDS011;42950;52.134;5.578;2024-01-10T03:04:28;5.45;;;3.80;;
23720;SDS011;42950;52.134;5.578;2024-01-10T03:06:54;6.82;;;4.28;;
23720;SDS011;42950;52.134;5.578;2024-01-10T03:09:20;7.30;;;4.40;;
23720;SDS011;42950;52.134;5.578;2024-01-10T03:11:47;5.82;;;3.80;;
23720;SDS011;42950;52.134;5.578;2024-01-10T03:14:13;6.43;;;3.83;;
23720;SDS011;42950;52.134;5.578;2024-01-10T03:16:39;6.07;;;4.13;;
23720;SDS011;42950;52.134;5.578;2024-01-10T03:19:05;5.63;;;3.83;;
23720;SDS011;42950;52.134;5.578;2024-01-10T03:21:30;7.28;;;4.20;;
23720;SDS011;42950;52.134;5.578;2024-01-10T03:23:56;6.03;;;3.90;;
23720;SDS011;42950;52.134;5.578;2024-01-10T03:26:23;6.05;;;4.00;;
23720;SDS011;42950;52.134;5.578;2024-01-10T03:28:48;6.20;;;4.25;;
23720;SDS011;42950;52.134;5.578;2024-01-10T03:31:14;9.57;;;4.43;;
23720;SDS011;42950;52.134;5.578;2024-01-10T03:33:40;6.88;;;4.00;;
23720;SDS011;42950;52.134;5.578;2024-01-10T03:36:06;5.88;;;4.13;;
23720;SDS011;42950;52.134;5.578;2024-01-10T03:38:34;9.00;;;4.28;;
23720;SDS011;42950;52.134;5.578;2024-01-10T03:40:59;6.47;;;4.18;;
23720;SDS011;42950;52.134;5.578;2024-01-10T03:43:25;4.85;;;3.80;;
23720;SDS011;42950;52.134;5.578;2024-01-10T03:45:51;7.13;;;4.18;;
23720;SDS011;42950;52.134;5.578;2024-01-10T03:48:16;6.32;;;4.40;;
23720;SDS011;42950;52.134;5.578;2024-01-10T03:50:42;5.07;;;4.00;;
23720;SDS011;42950;52.134;5.578;2024-01-10T03:53:07;7.13;;;4.47;;
23720;SDS011;42950;52.134;5.578;2024-01-10T03:55:33;5.28;;;4.03;;
23720;SDS011;42950;52.134;5.578;2024-01-10T03:57:58;9.93;;;4.03;;
23720;SDS011;42950;52.134;5.578;2024-01-10T04:00:24;6.63;;;4.40;;
23720;SDS011;42950;52.134;5.578;2024-01-10T04:02:50;6.28;;;3.95;;
23720;SDS011;42950;52.134;5.578;2024-01-10T04:05:16;7.53;;;4.38;;
23720;SDS011;42950;52.134;5.578;2024-01-10T04:07:43;8.43;;;4.63;;
23720;SDS011;42950;52.134;5.578;2024-01-10T04:10:09;6.80;;;4.03;;
23720;SDS011;42950;52.134;5.578;2024-01-10T04:12:39;6.88;;;3.85;;
23720;SDS011;42950;52.134;5.578;2024-01-10T04:15:05;6.38;;;3.95;;
23720;SDS011;42950;52.134;5.578;2024-01-10T04:17:31;5.53;;;4.13;;
23720;SDS011;42950;52.134;5.578;2024-01-10T04:19:57;6.28;;;4.38;;
23720;SDS011;42950;52.134;5.578;2024-01-10T04:22:23;7.53;;;4.22;;
23720;SDS011;42950;52.134;5.578;2024-01-10T04:24:49;5.90;;;4.43;;
23720;SDS011;42950;52.134;5.578;2024-01-10T04:27:15;6.93;;;4.50;;
23720;SDS011;42950;52.134;5.578;2024-01-10T04:29:40;5.90;;;3.90;;
23720;SDS011;42950;52.134;5.578;2024-01-10T04:32:06;5.90;;;3.47;;
23720;SDS011;42950;52.134;5.578;2024-01-10T04:34:32;7.55;;;4.15;;
23720;SDS011;42950;52.134;5.578;2024-01-10T04:36:58;5.68;;;4.10;;
23720;SDS011;42950;52.134;5.578;2024-01-10T04:39:23;5.93;;;4.20;;
23720;SDS011;42950;52.134;5.578;2024-01-10T04:41:49;6.78;;;4.13;;
23720;SDS011;42950;52.134;5.578;2024-01-10T04:44:14;6.82;;;4.15;;
23720;SDS011;42950;52.134;5.578;2024-01-10T04:46:40;6.53;;;4.10;;
23720;SDS011;42950;52.134;5.578;2024-01-10T04:49:06;6.47;;;3.97;;
23720;SDS011;42950;52.134;5.578;2024-01-10T04:51:32;6.88;;;4.18;;
23720;SDS011;42950;52.134;5.578;2024-01-10T04:53:58;7.47;;;4.35;;
23720;SDS011;42950;52.134;5.578;2024-01-10T04:56:24;6.20;;;4.20;;
23720;SDS011;42950;52.134;5.578;2024-01-10T04:58:50;6.32;;;4.35;;
23720;SDS011;42950;52.134;5.578;2024-01-10T05:01:15;7.10;;;4.10;;
23720;SDS011;42950;52.134;5.578;2024-01-10T05:03:41;7.88;;;4.13;;
23720;SDS011;42950;52.134;5.578;2024-01-10T05:06:07;8.07;;;4.35;;
23720;SDS011;42950;52.134;5.578;2024-01-10T05:08:32;6.72;;;4.57;;
23720;SDS011;42950;52.134;5.578;2024-01-10T05:10:58;6.82;;;4.00;;
23720;SDS011;42950;52.134;5.578;2024-01-10T05:13:23;5.45;;;4.32;;
23720;SDS011;42950;52.134;5.578;2024-01-10T05:15:49;6.72;;;4.47;;
23720;SDS011;42950;52.134;5.578;2024-01-10T05:18:15;5.78;;;4.18;;
23720;SDS011;42950;52.134;5.578;2024-01-10T05:20:41;6.90;;;4.32;;
23720;SDS011;42950;52.134;5.578;2024-01-10T05:23:06;7.05;;;4.82;;
23720;SDS011;42950;52.134;5.578;2024-01-10T05:25:32;6.20;;;4.18;;
23720;SDS011;42950;52.134;5.578;2024-01-10T05:27:58;7.50;;;4.20;;
23720;SDS011;42950;52.134;5.578;2024-01-10T05:30:23;5.25;;;3.85;;
23720;SDS011;42950;52.134;5.578;2024-01-10T05:32:49;6.70;;;4.45;;
23720;SDS011;42950;52.134;5.578;2024-01-10T05:35:15;6.85;;;4.35;;
23720;SDS011;42950;52.134;5.578;2024-01-10T05:37:40;5.80;;;4.28;;
23720;SDS011;42950;52.134;5.578;2024-01-10T05:40:06;5.93;;;4.40;;
23720;SDS011;42950;52.134;5.578;2024-01-10T05:42:32;8.27;;;4.57;;
23720;SDS011;42950;52.134;5.578;2024-01-10T05:44:58;7.22;;;4.55;;
23720;SDS011;42950;52.134;5.578;2024-01-10T05:47:27;5.60;;;4.22;;
23720;SDS011;42950;52.134;5.578;2024-01-10T05:49:53;8.10;;;5.25;;
23720;SDS011;42950;52.134;5.578;2024-01-10T05:52:19;8.35;;;5.05;;
23720;SDS011;42950;52.134;5.578;2024-01-10T05:54:45;7.50;;;4.72;;
23720;SDS011;42950;52.134;5.578;2024-01-10T05:57:13;7.63;;;4.93;;
23720;SDS011;42950;52.134;5.578;2024-01-10T05:59:41;7.70;;;4.78;;
23720;SDS011;42950;52.134;5.578;2024-01-10T06:02:07;6.60;;;4.50;;
23720;SDS011;42950;52.134;5.578;2024-01-10T06:04:32;7.53;;;4.70;;
23720;SDS011;42950;52.134;5.578;2024-01-10T06:06:58;7.05;;;5.03;;
23720;SDS011;42950;52.134;5.578;2024-01-10T06:09:24;6.30;;;4.38;;
23720;SDS011;42950;52.134;5.578;2024-01-10T06:11:49;8.32;;;4.68;;
23720;SDS011;42950;52.134;5.578;2024-01-10T06:14:15;9.82;;;5.40;;
23720;SDS011;42950;52.134;5.578;2024-01-10T06:16:41;8.50;;;5.15;;
23720;SDS011;42950;52.134;5.578;2024-01-10T06:19:06;10.95;;;5.22;;
23720;SDS011;42950;52.134;5.578;2024-01-10T06:21:32;6.93;;;4.82;;
23720;SDS011;42950;52.134;5.578;2024-01-10T06:23:57;6.75;;;4.97;;
23720;SDS011;42950;52.134;5.578;2024-01-10T06:26:23;6.82;;;4.82;;
23720;SDS011;42950;52.134;5.578;2024-01-10T06:28:48;9.68;;;6.47;;
23720;SDS011;42950;52.134;5.578;2024-01-10T06:31:14;9.52;;;6.10;;
23720;SDS011;42950;52.134;5.578;2024-01-10T06:33:39;10.05;;;6.20;;
23720;SDS011;42950;52.134;5.578;2024-01-10T06:36:05;13.38;;;6.82;;
23720;SDS011;42950;52.134;5.578;2024-01-10T06:38:31;12.02;;;6.93;;
23720;SDS011;42950;52.134;5.578;2024-01-10T06:40:56;12.10;;;6.55;;
23720;SDS011;42950;52.134;5.578;2024-01-10T06:43:22;9.68;;;5.65;;
23720;SDS011;42950;52.134;5.578;2024-01-10T06:45:48;9.45;;;5.78;;
23720;SDS011;42950;52.134;5.578;2024-01-10T06:48:14;8.10;;;5.50;;
23720;SDS011;42950;52.134;5.578;2024-01-10T06:50:40;8.90;;;5.72;;
23720;SDS011;42950;52.134;5.578;2024-01-10T06:53:05;11.15;;;5.63;;
23720;SDS011;42950;52.134;5.578;2024-01-10T06:55:31;11.63;;;5.03;;
23720;SDS011;42950;52.134;5.578;2024-01-10T06:57:57;8.20;;;5.25;;
23720;SDS011;42950;52.134;5.578;2024-01-10T07:00:22;14.05;;;5.75;;
23720;SDS011;42950;52.134;5.578;2024-01-10T07:02:49;11.20;;;6.28;;
23720;SDS011;42950;52.134;5.578;2024-01-10T07:05:14;9.82;;;5.70;;
23720;SDS011;42950;52.134;5.578;2024-01-10T07:07:41;11.77;;;6.50;;
23720;SDS011;42950;52.134;5.578;2024-01-10T07:10:06;11.77;;;6.13;;
23720;SDS011;42950;52.134;5.578;2024-01-10T07:12:33;10.40;;;6.00;;
23720;SDS011;42950;52.134;5.578;2024-01-10T07:14:59;12.90;;;6.20;;
23720;SDS011;42950;52.134;5.578;2024-01-10T07:17:24;9.38;;;5.45;;
23720;SDS011;42950;52.134;5.578;2024-01-10T07:19:50;9.93;;;5.60;;
23720;SDS011;42950;52.134;5.578;2024-01-10T07:22:16;11.98;;;5.70;;
23720;SDS011;42950;52.134;5.578;2024-01-10T07:24:43;11.48;;;6.03;;
23720;SDS011;42950;52.134;5.578;2024-01-10T07:27:08;10.27;;;5.75;;
23720;SDS011;42950;52.134;5.578;2024-01-10T07:29:34;9.57;;;5.45;;
23720;SDS011;42950;52.134;5.578;2024-01-10T07:32:00;9.73;;;5.93;;
23720;SDS011;42950;52.134;5.578;2024-01-10T07:34:26;9.55;;;5.72;;
23720;SDS011;42950;52.134;5.578;2024-01-10T07:36:51;14.32;;;6.03;;
23720;SDS011;42950;52.134;5.578;2024-01-10T07:39:19;9.80;;;6.00;;
23720;SDS011;42950;52.134;5.578;2024-01-10T07:41:45;10.57;;;5.55;;
23720;SDS011;42950;52.134;5.578;2024-01-10T07:44:11;12.52;;;6.20;;
23720;SDS011;42950;52.134;5.578;2024-01-10T07:46:37;12.60;;;6.43;;
23720;SDS011;42950;52.134;5.578;2024-01-10T07:49:03;11.13;;;6.05;;
23720;SDS011;42950;52.134;5.578;2024-01-10T07:51:30;13.30;;;6.32;;
23720;SDS011;42950;52.134;5.578;2024-01-10T07:53:55;10.35;;;5.95;;
23720;SDS011;42950;52.134;5.578;2024-01-10T07:56:21;10.45;;;5.85;;
23720;SDS011;42950;52.134;5.578;2024-01-10T07:58:47;9.35;;;5.82;;
23720;SDS011;42950;52.134;5.578;2024-01-10T08:01:14;11.45;;;5.93;;
23720;SDS011;42950;52.134;5.578;2024-01-10T08:03:40;12.70;;;6.97;;
23720;SDS011;42950;52.134;5.578;2024-01-10T08:06:05;9.32;;;5.95;;
23720;SDS011;42950;52.134;5.578;2024-01-10T08:08:31;17.88;;;6.00;;
23720;SDS011;42950;52.134;5.578;2024-01-10T08:10:57;9.45;;;6.20;;
23720;SDS011;42950;52.134;5.578;2024-01-10T08:13:22;9.65;;;5.53;;
23720;SDS011;42950;52.134;5.578;2024-01-10T08:15:48;9.18;;;5.47;;
23720;SDS011;42950;52.134;5.578;2024-01-10T08:18:13;8.70;;;5.45;;
23720;SDS011;42950;52.134;5.578;2024-01-10T08:20:39;9.85;;;5.80;;
23720;SDS011;42950;52.134;5.578;2024-01-10T08:23:05;11.32;;;5.35;;
23720;SDS011;42950;52.134;5.578;2024-01-10T08:25:31;8.30;;;5.13;;
23720;SDS011;42950;52.134;5.578;2024-01-10T08:27:56;8.80;;;5.15;;
23720;SDS011;42950;52.134;5.578;2024-01-10T08:30:23;12.98;;;5.95;;
23720;SDS011;42950;52.134;5.578;2024-01-10T08:32:49;10.73;;;6.22;;
23720;SDS011;42950;52.134;5.578;2024-01-10T08:35:14;10.02;;;5.60;;
23720;SDS011;42950;52.134;5.578;2024-01-10T08:37:40;9.40;;;5.25;;
23720;SDS011;42950;52.134;5.578;2024-01-10T08:40:10;9.32;;;5.50;;
23720;SDS011;42950;52.134;5.578;2024-01-10T08:42:37;8.68;;;5.88;;
23720;SDS011;42950;52.134;5.578;2024-01-10T08:45:03;10.10;;;6.00;;
23720;SDS011;42950;52.134;5.578;2024-01-10T08:47:29;11.73;;;6.40;;
23720;SDS011;42950;52.134;5.578;2024-01-10T08:49:59;9.50;;;6.05;;
23720;SDS011;42950;52.134;5.578;2024-01-10T08:52:25;12.05;;;6.47;;
23720;SDS011;42950;52.134;5.578;2024-01-10T08:54:51;10.65;;;6.05;;
23720;SDS011;42950;52.134;5.578;2024-01-10T08:57:16;10.00;;;6.13;;
23720;SDS011;42950;52.134;5.578;2024-01-10T08:59:42;9.98;;;5.97;;
23720;SDS011;42950;52.134;5.578;2024-01-10T09:02:08;9.95;;;5.38;;
23720;SDS011;42950;52.134;5.578;2024-01-10T09:04:33;10.85;;;5.72;;
23720;SDS011;42950;52.134;5.578;2024-01-10T09:06:59;10.40;;;5.55;;
23720;SDS011;42950;52.134;5.578;2024-01-10T09:09:24;9.60;;;5.55;;
23720;SDS011;42950;52.134;5.578;2024-01-10T09:11:50;9.95;;;5.78;;
23720;SDS011;42950;52.134;5.578;2024-01-10T09:14:15;10.82;;;6.68;;
23720;SDS011;42950;52.134;5.578;2024-01-10T09:16:41;11.38;;;6.53;;
23720;SDS011;42950;52.134;5.578;2024-01-10T09:19:06;11.23;;;6.00;;
23720;SDS011;42950;52.134;5.578;2024-01-10T09:21:32;10.18;;;6.10;;
23720;SDS011;42950;52.134;5.578;2024-01-10T09:23:58;9.85;;;5.88;;
23720;SDS011;42950;52.134;5.578;2024-01-10T09:26:23;9.77;;;5.88;;
23720;SDS011;42950;52.134;5.578;2024-01-10T09:28:49;9.40;;;5.88;;
23720;SDS011;42950;52.134;5.578;2024-01-10T09:31:14;9.25;;;6.10;;
23720;SDS011;42950;52.134;5.578;2024-01-10T09:33:40;8.65;;;5.38;;
23720;SDS011;42950;52.134;5.578;2024-01-10T09:36:06;8.75;;;5.47;;
23720;SDS011;42950;52.134;5.578;2024-01-10T09:38:37;11.85;;;6.05;;
23720;SDS011;42950;52.134;5.578;2024-01-10T09:41:06;15.00;;;6.13;;
23720;SDS011;42950;52.134;5.578;2024-01-10T09:43:31;11.77;;;6.50;;
23720;SDS011;42950;52.134;5.578;2024-01-10T09:46:00;9.85;;;5.80;;
23720;SDS011;42950;52.134;5.578;2024-01-10T09:48:29;10.95;;;6.13;;
23720;SDS011;42950;52.134;5.578;2024-01-10T09:50:56;11.18;;;5.93;;
23720;SDS011;42950;52.134;5.578;2024-01-10T09:53:22;11.65;;;6.45;;
23720;SDS011;42950;52.134;5.578;2024-01-10T09:55:49;12.38;;;6.35;;
23720;SDS011;42950;52.134;5.578;2024-01-10T09:58:15;9.60;;;6.15;;
23720;SDS011;42950;52.134;5.578;2024-01-10T10:00:41;10.98;;;6.45;;
23720;SDS011;42950;52.134;5.578;2024-01-10T10:03:09;9.48;;;5.95;;
23720;SDS011;42950;52.134;5.578;2024-01-10T10:05:37;11.75;;;6.68;;
23720;SDS011;42950;52.134;5.578;2024-01-10T10:08:03;11.43;;;6.72;;
23720;SDS011;42950;52.134;5.578;2024-01-10T10:10:31;9.90;;;6.18;;
23720;SDS011;42950;52.134;5.578;2024-01-10T10:12:57;13.05;;;6.32;;
23720;SDS011;42950;52.134;5.578;2024-01-10T10:15:24;10.82;;;6.85;;
23720;SDS011;42950;52.134;5.578;2024-01-10T10:17:53;12.07;;;6.60;;
23720;SDS011;42950;52.134;5.578;2024-01-10T10:25:33;12.45;;;6.70;;
23720;SDS011;42950;52.134;5.578;2024-01-10T10:28:00;10.93;;;6.60;;
23720;SDS011;42950;52.134;5.578;2024-01-10T10:30:27;10.40;;;6.38;;
23720;SDS011;42950;52.134;5.578;2024-01-10T10:32:55;10.38;;;6.13;;
23720;SDS011;42950;52.134;5.578;2024-01-10T10:35:21;10.43;;;6.95;;
23720;SDS011;42950;52.134;5.578;2024-01-10T10:37:50;11.05;;;7.00;;
23720;SDS011;42950;52.134;5.578;2024-01-10T10:40:17;12.55;;;6.97;;
23720;SDS011;42950;52.134;5.578;2024-01-10T10:42:44;13.48;;;7.40;;
23720;SDS011;42950;52.134;5.578;2024-01-10T10:45:15;13.05;;;7.32;;
23720;SDS011;42950;52.134;5.578;2024-01-10T10:47:45;11.02;;;6.45;;
23720;SDS011;42950;52.134;5.578;2024-01-10T10:50:18;11.43;;;6.95;;
23720;SDS011;42950;52.134;5.578;2024-01-10T10:52:47;12.20;;;7.10;;
23720;SDS011;42950;52.134;5.578;2024-01-10T10:55:16;11.40;;;6.75;;
23720;SDS011;42950;52.134;5.578;2024-01-10T10:57:44;11.98;;;6.88;;
23720;SDS011;42950;52.134;5.578;2024-01-10T11:00:22;10.32;;;6.50;;
23720;SDS011;42950;52.134;5.578;2024-01-10T11:02:55;11.63;;;6.72;;
23720;SDS011;42950;52.134;5.578;2024-01-10T11:05:22;12.70;;;6.82;;
23720;SDS011;42950;52.134;5.578;2024-01-10T11:07:49;10.88;;;6.90;;
23720;SDS011;42950;52.134;5.578;2024-01-10T11:10:18;12.07;;;6.30;;
23720;SDS011;42950;52.134;5.578;2024-01-10T11:24:23;11.02;;;6.13;;
23720;SDS011;42950;52.134;5.578;2024-01-10T11:26:50;12.18;;;7.28;;
23720;SDS011;42950;52.134;5.578;2024-01-10T11:29:15;11.00;;;6.68;;
23720;SDS011;42950;52.134;5.578;2024-01-10T11:31:41;11.93;;;6.80;;
23720;SDS011;42950;52.134;5.578;2024-01-10T11:34:15;11.85;;;7.18;;
23720;SDS011;42950;52.134;5.578;2024-01-10T11:36:40;13.48;;;7.28;;
23720;SDS011;42950;52.134;5.578;2024-01-10T11:39:36;12.02;;;7.22;;
23720;SDS011;42950;52.134;5.578;2024-01-10T11:42:02;12.60;;;7.70;;
23720;SDS011;42950;52.134;5.578;2024-01-10T11:44:28;10.70;;;7.15;;
23720;SDS011;42950;52.134;5.578;2024-01-10T11:46:55;20.17;;;7.30;;
23720;SDS011;42950;52.134;5.578;2024-01-10T11:49:22;11.98;;;6.97;;
23720;SDS011;42950;52.134;5.578;2024-01-10T11:51:50;11.18;;;7.28;;
23720;SDS011;42950;52.134;5.578;2024-01-10T11:54:40;11.88;;;7.07;;
23720;SDS011;42950;52.134;5.578;2024-01-10T11:57:28;11.05;;;6.95;;
23720;SDS011;42950;52.134;5.578;2024-01-10T11:59:53;13.13;;;7.47;;
23720;SDS011;42950;52.134;5.578;2024-01-10T12:02:21;11.98;;;6.88;;
23720;SDS011;42950;52.134;5.578;2024-01-10T12:04:48;11.18;;;6.88;;
23720;SDS011;42950;52.134;5.578;2024-01-10T12:07:15;10.70;;;6.95;;
23720;SDS011;42950;52.134;5.578;2024-01-10T12:09:41;10.07;;;6.65;;
23720;SDS011;42950;52.134;5.578;2024-01-10T12:12:07;12.55;;;7.45;;
23720;SDS011;42950;52.134;5.578;2024-01-10T12:14:33;10.65;;;7.25;;
23720;SDS011;42950;52.134;5.578;2024-01-10T12:16:59;10.68;;;7.28;;
23720;SDS011;42950;52.134;5.578;2024-01-10T12:19:25;11.85;;;7.10;;
23720;SDS011;42950;52.134;5.578;2024-01-10T12:21:52;11.07;;;6.82;;
23720;SDS011;42950;52.134;5.578;2024-01-10T12:24:18;12.02;;;6.95;;
23720;SDS011;42950;52.134;5.578;2024-01-10T12:26:44;12.45;;;7.07;;
23720;SDS011;42950;52.134;5.578;2024-01-10T12:29:10;11.45;;;6.65;;
23720;SDS011;42950;52.134;5.578;2024-01-10T12:31:37;11.25;;;6.68;;
23720;SDS011;42950;52.134;5.578;2024-01-10T12:34:04;11.05;;;7.10;;
23720;SDS011;42950;52.134;5.578;2024-01-10T12:36:33;11.45;;;6.88;;
23720;SDS011;42950;52.134;5.578;2024-01-10T12:38:58;11.38;;;6.63;;
23720;SDS011;42950;52.134;5.578;2024-01-10T12:41:24;11.32;;;6.95;;
23720;SDS011;42950;52.134;5.578;2024-01-10T12:43:54;11.35;;;6.93;;
23720;SDS011;42950;52.134;5.578;2024-01-10T12:46:20;10.82;;;6.75;;
23720;SDS011;42950;52.134;5.578;2024-01-10T12:48:57;10.43;;;6.57;;
23720;SDS011;42950;52.134;5.578;2024-01-10T12:51:30;13.52;;;6.43;;
23720;SDS011;42950;52.134;5.578;2024-01-10T12:53:57;12.48;;;7.22;;
23720;SDS011;42950;52.134;5.578;2024-01-10T12:56:26;10.60;;;6.50;;
23720;SDS011;42950;52.134;5.578;2024-01-10T12:58:53;11.32;;;6.80;;
23720;SDS011;42950;52.134;5.578;2024-01-10T13:01:25;13.23;;;6.85;;
23720;SDS011;42950;52.134;5.578;2024-01-10T13:03:51;10.93;;;7.07;;
23720;SDS011;42950;52.134;5.578;2024-01-10T13:06:17;11.15;;;6.32;;
23720;SDS011;42950;52.134;5.578;2024-01-10T13:08:44;11.80;;;6.68;;
23720;SDS011;42950;52.134;5.578;2024-01-10T13:11:10;11.32;;;6.60;;
23720;SDS011;42950;52.134;5.578;2024-01-10T13:13:38;10.40;;;6.63;;
23720;SDS011;42950;52.134;5.578;2024-01-10T13:16:03;9.75;;;6.53;;
23720;SDS011;42950;52.134;5.578;2024-01-10T13:18:29;12.77;;;6.47;;
23720;SDS011;42950;52.134;5.578;2024-01-10T13:20:55;9.48;;;5.65;;
23720;SDS011;42950;52.134;5.578;2024-01-10T13:23:21;13.48;;;6.60;;
23720;SDS011;42950;52.134;5.578;2024-01-10T13:25:49;10.38;;;6.50;;
23720;SDS011;42950;52.134;5.578;2024-01-10T13:28:15;9.68;;;6.25;;
23720;SDS011;42950;52.134;5.578;2024-01-10T13:30:41;11.30;;;6.68;;
23720;SDS011;42950;52.134;5.578;2024-01-10T13:33:08;9.98;;;6.03;;
23720;SDS011;42950;52.134;5.578;2024-01-10T13:35:34;9.80;;;6.45;;
23720;SDS011;42950;52.134;5.578;2024-01-10T13:38:03;10.88;;;6.43;;
23720;SDS011;42950;52.134;5.578;2024-01-10T13:40:30;10.25;;;6.35;;
23720;SDS011;42950;52.134;5.578;2024-01-10T13:42:56;9.20;;;5.90;;
23720;SDS011;42950;52.134;5.578;2024-01-10T13:45:22;9.32;;;5.95;;
23720;SDS011;42950;52.134;5.578;2024-01-10T13:47:48;9.90;;;5.93;;
23720;SDS011;42950;52.134;5.578;2024-01-10T13:50:14;10.48;;;6.22;;
23720;SDS011;42950;52.134;5.578;2024-01-10T13:52:40;13.02;;;6.28;;
23720;SDS011;42950;52.134;5.578;2024-01-10T13:55:05;11.00;;;6.35;;
23720;SDS011;42950;52.134;5.578;2024-01-10T13:57:31;9.18;;;6.07;;
23720;SDS011;42950;52.134;5.578;2024-01-10T13:59:57;10.52;;;6.40;;
23720;SDS011;42950;52.134;5.578;2024-01-10T14:02:23;12.82;;;6.57;;
23720;SDS011;42950;52.134;5.578;2024-01-10T14:04:50;11.40;;;6.47;;
23720;SDS011;42950;52.134;5.578;2024-01-10T14:07:16;11.55;;;7.28;;
23720;SDS011;42950;52.134;5.578;2024-01-10T14:09:42;12.85;;;8.13;;
23720;SDS011;42950;52.134;5.578;2024-01-10T14:12:07;12.45;;;7.57;;
23720;SDS011;42950;52.134;5.578;2024-01-10T14:14:33;13.40;;;6.80;;
23720;SDS011;42950;52.134;5.578;2024-01-10T14:16:59;9.35;;;6.60;;
23720;SDS011;42950;52.134;5.578;2024-01-10T14:19:24;10.63;;;6.22;;
23720;SDS011;42950;52.134;5.578;2024-01-10T14:21:50;11.18;;;6.57;;
23720;SDS011;42950;52.134;5.578;2024-01-10T14:24:15;9.80;;;6.53;;
23720;SDS011;42950;52.134;5.578;2024-01-10T14:26:41;8.25;;;5.78;;
23720;SDS011;42950;52.134;5.578;2024-01-10T14:29:07;9.27;;;5.97;;
23720;SDS011;42950;52.134;5.578;2024-01-10T14:31:33;11.68;;;5.90;;
23720;SDS011;42950;52.134;5.578;2024-01-10T14:33:59;8.98;;;5.85;;
23720;SDS011;42950;52.134;5.578;2024-01-10T14:36:25;11.57;;;6.55;;
23720;SDS011;42950;52.134;5.578;2024-01-10T14:38:50;12.18;;;6.45;;
23720;SDS011;42950;52.134;5.578;2024-01-10T14:41:16;11.57;;;6.05;;
23720;SDS011;42950;52.134;5.578;2024-01-10T14:43:41;9.73;;;6.00;;
23720;SDS011;42950;52.134;5.578;2024-01-10T14:46:07;10.25;;;6.43;;
23720;SDS011;42950;52.134;5.578;2024-01-10T14:48:32;9.07;;;5.88;;
23720;SDS011;42950;52.134;5.578;2024-01-10T14:50:58;9.15;;;5.75;;
23720;SDS011;42950;52.134;5.578;2024-01-10T14:53:29;10.80;;;5.53;;
23720;SDS011;42950;52.134;5.578;2024-01-10T14:55:55;8.93;;;6.07;;